sensor_id;sensor_type;location;lat;lon;timestamp;P1;durP1;ratioP1;P2;durP2;ratioP2
60306;SDS011;46155;52.364;6.580;2024-02-26T04:00:22;18.50;;;17.00;;
60306;SDS011;46155;52.364;6.580;2024-02-26T04:02:47;17.50;;;15.40;;
60306;SDS011;46155;52.364;6.580;2024-02-26T04:05:13;18.27;;;16.57;;
60306;SDS011;46155;52.364;6.580;2024-02-26T04:07:39;20.07;;;15.87;;
60306;SDS011;46155;52.364;6.580;2024-02-26T04:10:09;18.77;;;17.17;;
60306;SDS011;46155;52.364;6.580;2024-02-26T04:12:35;16.73;;;15.23;;
60306;SDS011;46155;52.364;6.580;2024-02-26T04:15:00;16.63;;;14.97;;
60306;SDS011;46155;52.364;6.580;2024-02-26T04:17:25;15.27;;;13.23;;
60306;SDS011;46155;52.364;6.580;2024-02-26T04:19:50;19.13;;;17.43;;
60306;SDS011;46155;52.364;6.580;2024-02-26T04:22:16;18.07;;;16.53;;
60306;SDS011;46155;52.364;6.580;2024-02-26T04:24:41;17.17;;;15.73;;
60306;SDS011;46155;52.364;6.580;2024-02-26T04:27:06;18.67;;;16.77;;
60306;SDS011;46155;52.364;6.580;2024-02-26T04:29:31;17.90;;;16.37;;
60306;SDS011;46155;52.364;6.580;2024-02-26T04:31:57;21.13;;;17.37;;
60306;SDS011;46155;52.364;6.580;2024-02-26T04:34:22;19.20;;;17.53;;
60306;SDS011;46155;52.364;6.580;2024-02-26T04:36:47;20.03;;;18.13;;
60306;SDS011;46155;52.364;6.580;2024-02-26T04:39:13;17.63;;;15.83;;
60306;SDS011;46155;52.364;6.580;2024-02-26T04:41:38;23.83;;;18.20;;
60306;SDS011;46155;52.364;6.580;2024-02-26T04:44:03;18.43;;;16.73;;
60306;SDS011;46155;52.364;6.580;2024-02-26T04:46:29;19.80;;;17.70;;
60306;SDS011;46155;52.364;6.580;2024-02-26T04:48:54;19.10;;;17.40;;
60306;SDS011;46155;52.364;6.580;2024-02-26T04:51:19;18.23;;;15.70;;
60306;SDS011;46155;52.364;6.580;2024-02-26T04:53:44;19.63;;;14.63;;
60306;SDS011;46155;52.364;6.580;2024-02-26T04:56:10;22.10;;;16.67;;
60306;SDS011;46155;52.364;6.580;2024-02-26T04:58:35;19.00;;;16.53;;
60306;SDS011;46155;52.364;6.580;2024-02-26T05:01:01;17.43;;;15.73;;
60306;SDS011;46155;52.364;6.580;2024-02-26T05:03:26;19.13;;;17.30;;
60306;SDS011;46155;52.364;6.580;2024-02-26T05:05:51;17.37;;;15.67;;
60306;SDS011;46155;52.364;6.580;2024-02-26T05:08:17;18.70;;;16.70;;
60306;SDS011;46155;52.364;6.580;2024-02-26T05:10:42;18.80;;;16.73;;
60306;SDS011;46155;52.364;6.580;2024-02-26T05:13:08;17.90;;;16.00;;
60306;SDS011;46155;52.364;6.580;2024-02-26T05:15:34;18.10;;;16.30;;
60306;SDS011;46155;52.364;6.580;2024-02-26T05:18:00;18.50;;;16.13;;
60306;SDS011;46155;52.364;6.580;2024-02-26T05:20:25;20.10;;;16.17;;
60306;SDS011;46155;52.364;6.580;2024-02-26T05:22:50;18.60;;;16.33;;
60306;SDS011;46155;52.364;6.580;2024-02-26T05:25:16;21.80;;;16.13;;
60306;SDS011;46155;52.364;6.580;2024-02-26T05:27:42;20.30;;;15.83;;
60306;SDS011;46155;52.364;6.580;2024-02-26T05:30:09;23.53;;;17.10;;
60306;SDS011;46155;52.364;6.580;2024-02-26T05:32:35;16.70;;;14.83;;
60306;SDS011;46155;52.364;6.580;2024-02-26T05:35:00;18.67;;;14.17;;
60306;SDS011;46155;52.364;6.580;2024-02-26T05:37:25;21.67;;;16.57;;
60306;SDS011;46155;52.364;6.580;2024-02-26T05:39:51;20.03;;;15.87;;
60306;SDS011;46155;52.364;6.580;2024-02-26T05:42:18;22.50;;;16.97;;
60306;SDS011;46155;52.364;6.580;2024-02-26T05:44:43;23.13;;;16.63;;
60306;SDS011;46155;52.364;6.580;2024-02-26T05:47:08;18.87;;;15.13;;
60306;SDS011;46155;52.364;6.580;2024-02-26T05:49:33;20.83;;;17.17;;
60306;SDS011;46155;52.364;6.580;2024-02-26T05:51:59;21.37;;;17.77;;
60306;SDS011;46155;52.364;6.580;2024-02-26T05:54:24;26.23;;;19.00;;
60306;SDS011;46155;52.364;6.580;2024-02-26T05:56:49;22.23;;;18.17;;
60306;SDS011;46155;52.364;6.580;2024-02-26T05:59:15;23.03;;;17.50;;
60306;SDS011;46155;52.364;6.580;2024-02-26T06:01:40;23.57;;;16.97;;
60306;SDS011;46155;52.364;6.580;2024-02-26T06:04:06;22.87;;;17.80;;
60306;SDS011;46155;52.364;6.580;2024-02-26T06:06:31;20.37;;;18.17;;
60306;SDS011;46155;52.364;6.580;2024-02-26T06:08:57;23.97;;;18.93;;
60306;SDS011;46155;52.364;6.580;2024-02-26T06:11:22;21.60;;;19.33;;
60306;SDS011;46155;52.364;6.580;2024-02-26T06:13:48;23.43;;;17.93;;
60306;SDS011;46155;52.364;6.580;2024-02-26T06:16:13;24.90;;;21.53;;
60306;SDS011;46155;52.364;6.580;2024-02-26T06:18:38;24.40;;;19.80;;
60306;SDS011;46155;52.364;6.580;2024-02-26T06:21:04;21.97;;;18.77;;
60306;SDS011;46155;52.364;6.580;2024-02-26T06:23:29;26.50;;;19.10;;
60306;SDS011;46155;52.364;6.580;2024-02-26T06:25:54;30.10;;;21.77;;
60306;SDS011;46155;52.364;6.580;2024-02-26T06:28:20;31.20;;;20.67;;
60306;SDS011;46155;52.364;6.580;2024-02-26T06:30:45;27.50;;;21.67;;
60306;SDS011;46155;52.364;6.580;2024-02-26T06:33:11;27.90;;;20.57;;
60306;SDS011;46155;52.364;6.580;2024-02-26T06:35:37;27.87;;;24.93;;
60306;SDS011;46155;52.364;6.580;2024-02-26T06:38:02;26.27;;;23.50;;
60306;SDS011;46155;52.364;6.580;2024-02-26T06:40:28;27.03;;;21.83;;
60306;SDS011;46155;52.364;6.580;2024-02-26T06:42:53;30.97;;;22.70;;
60306;SDS011;46155;52.364;6.580;2024-02-26T06:45:18;27.60;;;21.97;;
60306;SDS011;46155;52.364;6.580;2024-02-26T06:47:44;23.47;;;20.47;;
60306;SDS011;46155;52.364;6.580;2024-02-26T06:50:11;30.73;;;22.43;;
60306;SDS011;46155;52.364;6.580;2024-02-26T06:52:38;24.30;;;20.70;;
60306;SDS011;46155;52.364;6.580;2024-02-26T06:55:03;28.73;;;20.67;;
60306;SDS011;46155;52.364;6.580;2024-02-26T06:57:30;26.40;;;20.13;;
60306;SDS011;46155;52.364;6.580;2024-02-26T06:59:55;24.73;;;19.17;;
60306;SDS011;46155;52.364;6.580;2024-02-26T07:02:20;25.43;;;18.93;;
60306;SDS011;46155;52.364;6.580;2024-02-26T07:04:46;30.07;;;22.70;;
60306;SDS011;46155;52.364;6.580;2024-02-26T07:07:11;26.37;;;19.70;;
60306;SDS011;46155;52.364;6.580;2024-02-26T07:09:36;32.87;;;20.73;;
60306;SDS011;46155;52.364;6.580;2024-02-26T07:12:02;25.57;;;20.37;;
60306;SDS011;46155;52.364;6.580;2024-02-26T07:14:27;29.57;;;20.20;;
60306;SDS011;46155;52.364;6.580;2024-02-26T07:16:53;32.93;;;22.10;;
60306;SDS011;46155;52.364;6.580;2024-02-26T07:19:18;26.57;;;21.37;;
60306;SDS011;46155;52.364;6.580;2024-02-26T07:21:43;32.53;;;22.00;;
60306;SDS011;46155;52.364;6.580;2024-02-26T07:24:08;37.77;;;25.67;;
60306;SDS011;46155;52.364;6.580;2024-02-26T07:26:34;29.07;;;21.67;;
60306;SDS011;46155;52.364;6.580;2024-02-26T07:28:59;32.60;;;19.93;;
60306;SDS011;46155;52.364;6.580;2024-02-26T07:31:25;29.90;;;21.37;;
60306;SDS011;46155;52.364;6.580;2024-02-26T07:33:51;30.20;;;20.50;;
60306;SDS011;46155;52.364;6.580;2024-02-26T07:36:16;30.53;;;21.70;;
60306;SDS011;46155;52.364;6.580;2024-02-26T07:38:42;27.63;;;18.80;;
60306;SDS011;46155;52.364;6.580;2024-02-26T07:41:07;31.10;;;20.80;;
60306;SDS011;46155;52.364;6.580;2024-02-26T07:43:32;32.10;;;22.17;;
60306;SDS011;46155;52.364;6.580;2024-02-26T07:45:58;36.47;;;20.50;;
60306;SDS011;46155;52.364;6.580;2024-02-26T07:48:23;30.23;;;20.63;;
60306;SDS011;46155;52.364;6.580;2024-02-26T07:50:49;31.30;;;22.20;;
60306;SDS011;46155;52.364;6.580;2024-02-26T07:53:14;27.07;;;22.20;;
60306;SDS011;46155;52.364;6.580;2024-02-26T07:55:39;31.83;;;22.47;;
60306;SDS011;46155;52.364;6.580;2024-02-26T07:58:05;33.20;;;23.10;;
60306;SDS011;46155;52.364;6.580;2024-02-26T08:00:30;29.73;;;21.47;;
60306;SDS011;46155;52.364;6.580;2024-02-26T08:02:55;31.33;;;22.47;;
60306;SDS011;46155;52.364;6.580;2024-02-26T08:05:21;36.63;;;24.90;;
60306;SDS011;46155;52.364;6.580;2024-02-26T08:07:46;33.73;;;22.93;;
60306;SDS011;46155;52.364;6.580;2024-02-26T08:10:11;33.60;;;25.20;;
60306;SDS011;46155;52.364;6.580;2024-02-26T08:12:37;33.53;;;22.67;;
60306;SDS011;46155;52.364;6.580;2024-02-26T08:15:02;33.87;;;23.57;;
60306;SDS011;46155;52.364;6.580;2024-02-26T08:17:28;30.60;;;24.03;;
60306;SDS011;46155;52.364;6.580;2024-02-26T08:19:53;35.40;;;22.10;;
60306;SDS011;46155;52.364;6.580;2024-02-26T08:22:19;35.30;;;24.03;;
60306;SDS011;46155;52.364;6.580;2024-02-26T08:24:44;33.83;;;21.27;;
60306;SDS011;46155;52.364;6.580;2024-02-26T08:27:09;34.30;;;25.50;;
60306;SDS011;46155;52.364;6.580;2024-02-26T08:29:35;31.33;;;23.03;;
60306;SDS011;46155;52.364;6.580;2024-02-26T08:32:00;33.07;;;21.67;;
60306;SDS011;46155;52.364;6.580;2024-02-26T08:34:26;30.13;;;21.17;;
60306;SDS011;46155;52.364;6.580;2024-02-26T08:36:51;33.53;;;23.40;;
60306;SDS011;46155;52.364;6.580;2024-02-26T08:39:17;28.60;;;21.70;;
60306;SDS011;46155;52.364;6.580;2024-02-26T08:41:43;36.67;;;22.07;;
60306;SDS011;46155;52.364;6.580;2024-02-26T08:44:09;29.17;;;22.67;;
60306;SDS011;46155;52.364;6.580;2024-02-26T08:46:34;33.17;;;22.43;;
60306;SDS011;46155;52.364;6.580;2024-02-26T08:48:59;27.97;;;18.70;;
60306;SDS011;46155;52.364;6.580;2024-02-26T08:51:25;25.23;;;18.53;;
60306;SDS011;46155;52.364;6.580;2024-02-26T08:53:50;30.60;;;20.10;;
60306;SDS011;46155;52.364;6.580;2024-02-26T08:56:16;24.63;;;18.57;;
60306;SDS011;46155;52.364;6.580;2024-02-26T08:58:42;27.67;;;19.07;;
60306;SDS011;46155;52.364;6.580;2024-02-26T09:01:08;25.97;;;18.03;;
60306;SDS011;46155;52.364;6.580;2024-02-26T09:03:33;27.73;;;17.30;;
60306;SDS011;46155;52.364;6.580;2024-02-26T09:05:58;28.83;;;18.40;;
60306;SDS011;46155;52.364;6.580;2024-02-26T09:08:24;26.13;;;18.30;;
60306;SDS011;46155;52.364;6.580;2024-02-26T09:10:49;27.90;;;19.10;;
60306;SDS011;46155;52.364;6.580;2024-02-26T09:13:15;25.77;;;17.87;;
60306;SDS011;46155;52.364;6.580;2024-02-26T09:15:40;22.53;;;17.03;;
60306;SDS011;46155;52.364;6.580;2024-02-26T09:18:05;24.47;;;17.23;;
60306;SDS011;46155;52.364;6.580;2024-02-26T09:20:31;27.17;;;17.93;;
60306;SDS011;46155;52.364;6.580;2024-02-26T09:22:56;25.13;;;16.17;;
60306;SDS011;46155;52.364;6.580;2024-02-26T09:25:21;21.77;;;15.83;;
60306;SDS011;46155;52.364;6.580;2024-02-26T09:27:47;21.47;;;15.37;;
60306;SDS011;46155;52.364;6.580;2024-02-26T09:30:13;26.90;;;20.45;;
60306;SDS011;46155;52.364;6.580;2024-02-26T09:32:39;25.10;;;17.40;;
60306;SDS011;46155;52.364;6.580;2024-02-26T09:35:05;20.63;;;15.93;;
60306;SDS011;46155;52.364;6.580;2024-02-26T09:37:31;21.83;;;16.03;;
60306;SDS011;46155;52.364;6.580;2024-02-26T09:39:57;24.33;;;15.73;;
60306;SDS011;46155;52.364;6.580;2024-02-26T09:42:24;24.70;;;17.33;;
60306;SDS011;46155;52.364;6.580;2024-02-26T09:44:51;22.80;;;16.00;;
60306;SDS011;46155;52.364;6.580;2024-02-26T09:47:20;20.53;;;14.77;;
60306;SDS011;46155;52.364;6.580;2024-02-26T09:49:47;24.03;;;15.87;;
60306;SDS011;46155;52.364;6.580;2024-02-26T09:52:14;23.17;;;14.70;;
60306;SDS011;46155;52.364;6.580;2024-02-26T09:54:40;24.60;;;15.10;;
60306;SDS011;46155;52.364;6.580;2024-02-26T09:57:07;21.87;;;14.97;;
60306;SDS011;46155;52.364;6.580;2024-02-26T09:59:39;21.43;;;16.73;;
60306;SDS011;46155;52.364;6.580;2024-02-26T10:02:15;27.80;;;16.37;;
60306;SDS011;46155;52.364;6.580;2024-02-26T10:04:44;27.00;;;16.37;;
60306;SDS011;46155;52.364;6.580;2024-02-26T10:07:12;19.43;;;15.83;;
60306;SDS011;46155;52.364;6.580;2024-02-26T10:09:38;27.17;;;14.90;;
60306;SDS011;46155;52.364;6.580;2024-02-26T10:12:05;19.30;;;13.77;;
60306;SDS011;46155;52.364;6.580;2024-02-26T10:14:33;19.57;;;15.67;;
60306;SDS011;46155;52.364;6.580;2024-02-26T10:16:59;17.07;;;14.90;;
60306;SDS011;46155;52.364;6.580;2024-02-26T10:19:28;29.67;;;14.27;;
60306;SDS011;46155;52.364;6.580;2024-02-26T10:21:57;18.03;;;15.30;;
60306;SDS011;46155;52.364;6.580;2024-02-26T10:24:23;20.37;;;14.33;;
60306;SDS011;46155;52.364;6.580;2024-02-26T10:26:48;18.47;;;13.33;;
60306;SDS011;46155;52.364;6.580;2024-02-26T10:29:14;19.10;;;14.07;;
60306;SDS011;46155;52.364;6.580;2024-02-26T10:31:42;18.23;;;12.90;;
60306;SDS011;46155;52.364;6.580;2024-02-26T10:34:07;20.13;;;14.27;;
60306;SDS011;46155;52.364;6.580;2024-02-26T10:36:33;19.60;;;13.77;;
60306;SDS011;46155;52.364;6.580;2024-02-26T10:39:01;19.77;;;13.27;;
60306;SDS011;46155;52.364;6.580;2024-02-26T10:41:29;19.03;;;14.20;;
60306;SDS011;46155;52.364;6.580;2024-02-26T10:43:55;19.00;;;14.03;;
60306;SDS011;46155;52.364;6.580;2024-02-26T10:46:20;17.77;;;14.67;;
60306;SDS011;46155;52.364;6.580;2024-02-26T10:48:49;15.30;;;13.03;;
60306;SDS011;46155;52.364;6.580;2024-02-26T10:51:16;18.57;;;14.33;;
60306;SDS011;46155;52.364;6.580;2024-02-26T10:53:45;16.40;;;12.93;;
60306;SDS011;46155;52.364;6.580;2024-02-26T10:56:15;18.10;;;14.00;;
60306;SDS011;46155;52.364;6.580;2024-02-26T10:58:42;16.07;;;13.23;;
60306;SDS011;46155;52.364;6.580;2024-02-26T11:01:10;17.33;;;13.67;;
60306;SDS011;46155;52.364;6.580;2024-02-26T11:03:37;17.23;;;14.37;;
60306;SDS011;46155;52.364;6.580;2024-02-26T11:06:04;16.57;;;13.13;;
60306;SDS011;46155;52.364;6.580;2024-02-26T11:08:29;19.00;;;14.40;;
60306;SDS011;46155;52.364;6.580;2024-02-26T11:10:56;15.60;;;13.83;;
60306;SDS011;46155;52.364;6.580;2024-02-26T11:13:22;15.87;;;14.20;;
60306;SDS011;46155;52.364;6.580;2024-02-26T11:15:51;14.97;;;13.17;;
60306;SDS011;46155;52.364;6.580;2024-02-26T11:18:19;15.80;;;14.10;;
60306;SDS011;46155;52.364;6.580;2024-02-26T11:20:48;15.43;;;12.70;;
60306;SDS011;46155;52.364;6.580;2024-02-26T11:23:15;19.90;;;15.15;;
60306;SDS011;46155;52.364;6.580;2024-02-26T11:25:40;15.67;;;13.30;;
60306;SDS011;46155;52.364;6.580;2024-02-26T11:28:07;16.17;;;13.53;;
60306;SDS011;46155;52.364;6.580;2024-02-26T11:30:38;14.70;;;12.77;;
60306;SDS011;46155;52.364;6.580;2024-02-26T11:33:08;18.97;;;14.60;;
60306;SDS011;46155;52.364;6.580;2024-02-26T11:35:38;16.10;;;14.40;;
60306;SDS011;46155;52.364;6.580;2024-02-26T11:38:04;15.17;;;13.60;;
60306;SDS011;46155;52.364;6.580;2024-02-26T11:40:31;15.83;;;14.13;;
60306;SDS011;46155;52.364;6.580;2024-02-26T11:42:57;16.83;;;14.40;;
60306;SDS011;46155;52.364;6.580;2024-02-26T11:48:13;17.73;;;14.80;;
60306;SDS011;46155;52.364;6.580;2024-02-26T11:50:40;17.47;;;15.87;;
60306;SDS011;46155;52.364;6.580;2024-02-26T11:53:23;15.67;;;14.13;;
60306;SDS011;46155;52.364;6.580;2024-02-26T11:58:44;18.50;;;16.67;;
60306;SDS011;46155;52.364;6.580;2024-02-26T12:04:44;18.13;;;14.20;;
60306;SDS011;46155;52.364;6.580;2024-02-26T12:06:52;18.70;;;13.83;;
60306;SDS011;46155;52.364;6.580;2024-02-26T12:09:33;16.33;;;14.73;;
60306;SDS011;46155;52.364;6.580;2024-02-26T12:12:02;17.60;;;13.77;;
60306;SDS011;46155;52.364;6.580;2024-02-26T12:14:50;14.47;;;13.07;;
60306;SDS011;46155;52.364;6.580;2024-02-26T12:17:26;18.73;;;13.40;;
60306;SDS011;46155;52.364;6.580;2024-02-26T12:19:51;16.03;;;13.87;;
60306;SDS011;46155;52.364;6.580;2024-02-26T12:22:18;14.93;;;11.33;;
60306;SDS011;46155;52.364;6.580;2024-02-26T12:24:44;13.47;;;12.17;;
60306;SDS011;46155;52.364;6.580;2024-02-26T12:27:09;16.40;;;12.93;;
60306;SDS011;46155;52.364;6.580;2024-02-26T12:29:35;13.60;;;11.87;;
60306;SDS011;46155;52.364;6.580;2024-02-26T12:32:00;12.90;;;10.67;;
60306;SDS011;46155;52.364;6.580;2024-02-26T12:34:26;16.87;;;12.47;;
60306;SDS011;46155;52.364;6.580;2024-02-26T12:36:53;16.93;;;12.03;;
60306;SDS011;46155;52.364;6.580;2024-02-26T12:39:19;13.67;;;11.57;;
60306;SDS011;46155;52.364;6.580;2024-02-26T12:41:45;17.47;;;11.20;;
60306;SDS011;46155;52.364;6.580;2024-02-26T12:44:15;15.20;;;11.53;;
60306;SDS011;46155;52.364;6.580;2024-02-26T12:46:41;14.20;;;11.03;;
60306;SDS011;46155;52.364;6.580;2024-02-26T12:49:06;12.50;;;11.20;;
60306;SDS011;46155;52.364;6.580;2024-02-26T12:51:33;15.23;;;11.30;;
60306;SDS011;46155;52.364;6.580;2024-02-26T12:53:58;12.80;;;10.17;;
60306;SDS011;46155;52.364;6.580;2024-02-26T12:56:24;20.47;;;10.10;;
60306;SDS011;46155;52.364;6.580;2024-02-26T12:58:54;12.73;;;9.50;;
60306;SDS011;46155;52.364;6.580;2024-02-26T13:01:21;11.40;;;10.07;;
60306;SDS011;46155;52.364;6.580;2024-02-26T13:03:49;12.43;;;11.00;;
60306;SDS011;46155;52.364;6.580;2024-02-26T13:06:16;13.60;;;9.60;;
60306;SDS011;46155;52.364;6.580;2024-02-26T13:08:42;14.00;;;10.30;;
60306;SDS011;46155;52.364;6.580;2024-02-26T13:11:08;12.20;;;9.83;;
60306;SDS011;46155;52.364;6.580;2024-02-26T13:13:33;12.67;;;8.93;;
60306;SDS011;46155;52.364;6.580;2024-02-26T13:16:05;13.50;;;9.07;;
60306;SDS011;46155;52.364;6.580;2024-02-26T13:18:33;11.87;;;9.47;;
60306;SDS011;46155;52.364;6.580;2024-02-26T13:21:12;13.97;;;9.60;;
60306;SDS011;46155;52.364;6.580;2024-02-26T13:23:41;10.93;;;9.70;;
60306;SDS011;46155;52.364;6.580;2024-02-26T13:26:08;22.20;;;9.23;;
60306;SDS011;46155;52.364;6.580;2024-02-26T13:28:36;14.97;;;9.67;;
60306;SDS011;46155;52.364;6.580;2024-02-26T13:31:02;13.13;;;9.63;;
60306;SDS011;46155;52.364;6.580;2024-02-26T13:33:29;12.23;;;8.93;;
60306;SDS011;46155;52.364;6.580;2024-02-26T13:35:55;14.90;;;9.37;;
60306;SDS011;46155;52.364;6.580;2024-02-26T13:38:21;13.53;;;10.20;;
60306;SDS011;46155;52.364;6.580;2024-02-26T13:40:47;13.23;;;10.57;;
60306;SDS011;46155;52.364;6.580;2024-02-26T13:43:13;14.30;;;11.10;;
60306;SDS011;46155;52.364;6.580;2024-02-26T13:45:38;13.57;;;9.73;;
60306;SDS011;46155;52.364;6.580;2024-02-26T13:48:09;11.40;;;9.73;;
60306;SDS011;46155;52.364;6.580;2024-02-26T13:50:36;14.83;;;11.50;;
60306;SDS011;46155;52.364;6.580;2024-02-26T13:53:05;18.93;;;9.93;;
60306;SDS011;46155;52.364;6.580;2024-02-26T13:55:31;13.83;;;9.93;;
60306;SDS011;46155;52.364;6.580;2024-02-26T13:57:57;13.03;;;9.70;;
60306;SDS011;46155;52.364;6.580;2024-02-26T14:00:23;16.27;;;10.90;;
60306;SDS011;46155;52.364;6.580;2024-02-26T14:02:49;15.23;;;10.57;;
60306;SDS011;46155;52.364;6.580;2024-02-26T14:05:15;12.77;;;9.10;;
60306;SDS011;46155;52.364;6.580;2024-02-26T14:07:41;15.57;;;9.90;;
60306;SDS011;46155;52.364;6.580;2024-02-26T14:10:07;15.27;;;11.87;;
60306;SDS011;46155;52.364;6.580;2024-02-26T14:12:36;14.40;;;11.13;;
60306;SDS011;46155;52.364;6.580;2024-02-26T14:15:01;14.33;;;10.97;;
60306;SDS011;46155;52.364;6.580;2024-02-26T14:17:29;15.07;;;11.43;;
60306;SDS011;46155;52.364;6.580;2024-02-26T14:19:55;12.93;;;9.43;;
60306;SDS011;46155;52.364;6.580;2024-02-26T14:22:20;13.43;;;9.17;;
60306;SDS011;46155;52.364;6.580;2024-02-26T14:24:45;12.67;;;9.70;;
60306;SDS011;46155;52.364;6.580;2024-02-26T14:27:11;14.20;;;10.20;;
60306;SDS011;46155;52.364;6.580;2024-02-26T14:29:40;12.17;;;10.17;;
60306;SDS011;46155;52.364;6.580;2024-02-26T14:32:08;12.13;;;9.77;;
60306;SDS011;46155;52.364;6.580;2024-02-26T14:34:33;14.00;;;10.47;;
60306;SDS011;46155;52.364;6.580;2024-02-26T14:36:58;13.50;;;10.00;;
60306;SDS011;46155;52.364;6.580;2024-02-26T14:39:24;13.73;;;10.07;;
60306;SDS011;46155;52.364;6.580;2024-02-26T14:41:49;15.33;;;10.30;;
60306;SDS011;46155;52.364;6.580;2024-02-26T14:44:14;12.90;;;9.17;;
60306;SDS011;46155;52.364;6.580;2024-02-26T14:46:40;12.50;;;9.27;;
60306;SDS011;46155;52.364;6.580;2024-02-26T14:49:05;12.63;;;8.33;;
60306;SDS011;46155;52.364;6.580;2024-02-26T14:51:30;13.07;;;9.70;;
60306;SDS011;46155;52.364;6.580;2024-02-26T14:53:56;13.23;;;8.90;;
60306;SDS011;46155;52.364;6.580;2024-02-26T14:56:21;15.67;;;10.03;;
60306;SDS011;46155;52.364;6.580;2024-02-26T14:58:47;10.97;;;8.10;;
60306;SDS011;46155;52.364;6.580;2024-02-26T15:01:12;9.90;;;8.70;;
60306;SDS011;46155;52.364;6.580;2024-02-26T15:03:38;15.80;;;10.30;;
60306;SDS011;46155;52.364;6.580;2024-02-26T15:06:03;11.33;;;8.30;;
60306;SDS011;46155;52.364;6.580;2024-02-26T15:08:29;12.07;;;8.80;;
60306;SDS011;46155;52.364;6.580;2024-02-26T15:10:55;14.90;;;9.13;;
60306;SDS011;46155;52.364;6.580;2024-02-26T15:13:20;12.57;;;10.10;;
60306;SDS011;46155;52.364;6.580;2024-02-26T15:15:46;14.20;;;10.53;;
60306;SDS011;46155;52.364;6.580;2024-02-26T15:18:11;10.63;;;8.60;;
60306;SDS011;46155;52.364;6.580;2024-02-26T15:20:41;13.13;;;9.90;;
60306;SDS011;46155;52.364;6.580;2024-02-26T15:23:08;11.37;;;8.73;;
60306;SDS011;46155;52.364;6.580;2024-02-26T15:25:33;12.40;;;9.07;;
60306;SDS011;46155;52.364;6.580;2024-02-26T15:27:59;12.33;;;10.27;;
60306;SDS011;46155;52.364;6.580;2024-02-26T15:30:24;12.67;;;9.77;;
60306;SDS011;46155;52.364;6.580;2024-02-26T15:32:52;13.83;;;10.13;;
60306;SDS011;46155;52.364;6.580;2024-02-26T15:35:17;17.37;;;11.73;;
60306;SDS011;46155;52.364;6.580;2024-02-26T15:37:43;14.60;;;11.23;;
60306;SDS011;46155;52.364;6.580;2024-02-26T15:40:08;20.83;;;11.87;;
60306;SDS011;46155;52.364;6.580;2024-02-26T15:42:35;17.00;;;11.30;;
60306;SDS011;46155;52.364;6.580;2024-02-26T15:45:00;12.73;;;10.57;;
60306;SDS011;46155;52.364;6.580;2024-02-26T15:47:26;13.37;;;11.23;;
60306;SDS011;46155;52.364;6.580;2024-02-26T15:49:51;13.67;;;10.03;;
60306;SDS011;46155;52.364;6.580;2024-02-26T15:52:16;18.90;;;11.73;;
60306;SDS011;46155;52.364;6.580;2024-02-26T15:54:42;14.23;;;10.97;;
60306;SDS011;46155;52.364;6.580;2024-02-26T15:57:07;17.20;;;11.83;;
60306;SDS011;46155;52.364;6.580;2024-02-26T15:59:35;18.07;;;11.43;;
60306;SDS011;46155;52.364;6.580;2024-02-26T16:02:01;20.53;;;13.57;;
60306;SDS011;46155;52.364;6.580;2024-02-26T16:04:26;17.30;;;12.77;;
60306;SDS011;46155;52.364;6.580;2024-02-26T16:06:53;15.03;;;12.77;;
60306;SDS011;46155;52.364;6.580;2024-02-26T16:09:21;15.00;;;12.07;;
60306;SDS011;46155;52.364;6.580;2024-02-26T16:11:46;14.17;;;10.93;;
60306;SDS011;46155;52.364;6.580;2024-02-26T16:19:42;16.57;;;13.33;;
60306;SDS011;46155;52.364;6.580;2024-02-26T16:22:08;14.57;;;11.43;;
60306;SDS011;46155;52.364;6.580;2024-02-26T16:24:33;18.23;;;12.60;;
60306;SDS011;46155;52.364;6.580;2024-02-26T16:26:58;17.83;;;12.60;;
60306;SDS011;46155;52.364;6.580;2024-02-26T16:29:24;17.90;;;12.17;;
60306;SDS011;46155;52.364;6.580;2024-02-26T16:31:49;21.53;;;14.33;;
60306;SDS011;46155;52.364;6.580;2024-02-26T16:34:14;17.83;;;13.17;;
60306;SDS011;46155;52.364;6.580;2024-02-26T16:36:40;16.77;;;12.03;;
60306;SDS011;46155;52.364;6.580;2024-02-26T16:39:05;20.10;;;14.07;;
60306;SDS011;46155;52.364;6.580;2024-02-26T16:41:33;15.50;;;12.80;;
60306;SDS011;46155;52.364;6.580;2024-02-26T16:43:59;20.17;;;14.80;;
60306;SDS011;46155;52.364;6.580;2024-02-26T16:46:24;20.10;;;13.67;;
60306;SDS011;46155;52.364;6.580;2024-02-26T16:48:49;21.37;;;15.07;;
60306;SDS011;46155;52.364;6.580;2024-02-26T16:51:17;23.57;;;15.33;;
60306;SDS011;46155;52.364;6.580;2024-02-26T16:53:43;21.00;;;15.93;;
60306;SDS011;46155;52.364;6.580;2024-02-26T16:56:09;25.57;;;15.50;;
60306;SDS011;46155;52.364;6.580;2024-02-26T16:58:35;18.27;;;14.87;;
60306;SDS011;46155;52.364;6.580;2024-02-26T17:01:00;20.43;;;16.27;;
60306;SDS011;46155;52.364;6.580;2024-02-26T17:03:26;22.50;;;17.00;;
60306;SDS011;46155;52.364;6.580;2024-02-26T17:05:51;20.90;;;16.17;;
60306;SDS011;46155;52.364;6.580;2024-02-26T17:08:16;18.63;;;14.80;;
60306;SDS011;46155;52.364;6.580;2024-02-26T17:10:42;20.13;;;16.50;;
60306;SDS011;46155;52.364;6.580;2024-02-26T17:13:07;26.43;;;18.20;;
60306;SDS011;46155;52.364;6.580;2024-02-26T17:15:32;18.50;;;15.37;;
60306;SDS011;46155;52.364;6.580;2024-02-26T17:17:58;22.20;;;17.60;;
60306;SDS011;46155;52.364;6.580;2024-02-26T17:20:23;20.20;;;15.47;;
60306;SDS011;46155;52.364;6.580;2024-02-26T17:22:48;24.43;;;17.10;;
60306;SDS011;46155;52.364;6.580;2024-02-26T17:25:14;25.67;;;17.93;;
60306;SDS011;46155;52.364;6.580;2024-02-26T17:27:41;23.57;;;17.57;;
60306;SDS011;46155;52.364;6.580;2024-02-26T17:30:06;25.13;;;18.13;;
60306;SDS011;46155;52.364;6.580;2024-02-26T17:32:32;23.97;;;17.13;;
60306;SDS011;46155;52.364;6.580;2024-02-26T17:34:59;27.00;;;17.73;;
60306;SDS011;46155;52.364;6.580;2024-02-26T17:37:24;19.53;;;15.90;;
60306;SDS011;46155;52.364;6.580;2024-02-26T17:39:50;21.83;;;17.10;;
60306;SDS011;46155;52.364;6.580;2024-02-26T17:42:15;20.87;;;18.17;;
60306;SDS011;46155;52.364;6.580;2024-02-26T17:44:41;22.47;;;17.23;;
60306;SDS011;46155;52.364;6.580;2024-02-26T17:47:07;24.83;;;18.37;;
60306;SDS011;46155;52.364;6.580;2024-02-26T17:49:33;27.53;;;18.20;;
60306;SDS011;46155;52.364;6.580;2024-02-26T17:51:59;22.73;;;15.23;;
60306;SDS011;46155;52.364;6.580;2024-02-26T17:54:24;18.53;;;14.73;;
60306;SDS011;46155;52.364;6.580;2024-02-26T17:56:50;25.13;;;17.73;;
60306;SDS011;46155;52.364;6.580;2024-02-26T17:59:16;20.43;;;16.23;;
60306;SDS011;46155;52.364;6.580;2024-02-26T18:01:42;21.83;;;17.17;;
60306;SDS011;46155;52.364;6.580;2024-02-26T18:04:08;21.27;;;17.80;;
60306;SDS011;46155;52.364;6.580;2024-02-26T18:06:33;22.67;;;17.93;;
60306;SDS011;46155;52.364;6.580;2024-02-26T18:08:58;23.10;;;17.27;;
60306;SDS011;46155;52.364;6.580;2024-02-26T18:11:24;20.73;;;16.53;;
60306;SDS011;46155;52.364;6.580;2024-02-26T18:13:49;21.87;;;18.20;;
60306;SDS011;46155;52.364;6.580;2024-02-26T18:16:15;24.93;;;17.57;;
60306;SDS011;46155;52.364;6.580;2024-02-26T18:18:40;21.73;;;16.60;;
60306;SDS011;46155;52.364;6.580;2024-02-26T18:21:11;21.40;;;17.87;;
60306;SDS011;46155;52.364;6.580;2024-02-26T18:23:37;23.43;;;16.43;;
60306;SDS011;46155;52.364;6.580;2024-02-26T18:26:04;24.87;;;17.13;;
60306;SDS011;46155;52.364;6.580;2024-02-26T18:28:30;29.53;;;18.53;;
60306;SDS011;46155;52.364;6.580;2024-02-26T18:30:55;22.20;;;18.00;;